Time;durP1;ratioP1;P1;durP2;ratioP2;P2;SDS_P1;SDS_P2;PMS_P1;PMS_P2;Temp;Humidity;BMP_temperature;BMP_pressure;BME280_temperature;BME280_humidity;BME280_pressure;Samples;Min_cycle;Max_cycle;Signal;HPM_P1;HPM_P2
2022/06/22 00:01:16;;;;;;;5.10;3.50;;;18.80;99.90;;;;;;5073766;28;20200;-77
2022/06/22 00:03:48;;;;;;;5.65;4.32;;;18.80;99.90;;;;;;5073721;28;20245;-77
2022/06/22 00:06:22;;;;;;;6.20;3.78;;;18.80;99.90;;;;;;5073671;28;20283;-76
2022/06/22 00:08:53;;;;;;;7.40;4.10;;;18.80;99.90;;;;;;5073498;28;20208;-77
2022/06/22 00:11:21;;;;;;;5.10;3.60;;;18.90;99.90;;;;;;5073383;28;20197;-76
2022/06/22 00:13:51;;;;;;;4.95;3.90;;;18.80;99.90;;;;;;5073522;28;20201;-76
2022/06/22 00:16:23;;;;;;;7.72;3.70;;;18.70;99.90;;;;;;5072776;28;20266;-76
2022/06/22 00:18:51;;;;;;;5.25;4.03;;;18.80;99.90;;;;;;5073220;28;20587;-76
2022/06/22 00:21:20;;;;;;;5.82;3.85;;;18.80;99.90;;;;;;5073297;28;20197;-76
2022/06/22 00:23:50;;;;;;;4.22;3.50;;;18.80;99.90;;;;;;5073164;28;20223;-77
2022/06/22 00:26:31;;;;;;;4.30;3.60;;;18.70;99.90;;;;;;5073288;28;20228;-76
2022/06/22 00:29:23;;;;;;;5.40;3.75;;;18.70;99.90;;;;;;5073055;28;20672;-76
2022/06/22 00:32:02;;;;;;;7.97;3.90;;;18.70;99.90;;;;;;5067658;28;20258;-77
2022/06/22 00:34:31;;;;;;;6.00;4.07;;;18.70;99.90;;;;;;5072980;28;20200;-76
2022/06/22 00:37:01;;;;;;;5.43;4.00;;;18.50;99.90;;;;;;5073174;28;20212;-76
2022/06/22 00:39:37;;;;;;;5.35;4.10;;;18.40;99.90;;;;;;5072819;28;20668;-78
2022/06/22 00:42:24;;;;;;;4.70;4.07;;;18.40;99.90;;;;;;5073015;28;20668;-76
2022/06/22 00:44:57;;;;;;;6.47;4.28;;;18.50;99.90;;;;;;5072861;28;20251;-77
2022/06/22 00:47:29;;;;;;;6.05;4.32;;;18.40;99.90;;;;;;5073085;28;20193;-78
2022/06/22 00:50:00;;;;;;;5.50;4.30;;;18.30;99.90;;;;;;5072895;28;20227;-76
2022/06/22 00:52:35;;;;;;;5.57;4.20;;;18.20;99.90;;;;;;5072817;28;20197;-77
2022/06/22 00:55:04;;;;;;;6.60;4.25;;;18.10;99.90;;;;;;5072788;28;20193;-77
2022/06/22 00:57:35;;;;;;;7.15;4.60;;;18.00;99.90;;;;;;5072988;28;20193;-77
2022/06/22 01:00:07;;;;;;;6.05;4.28;;;18.00;99.90;;;;;;5072873;28;20205;-77
2022/06/22 01:02:40;;;;;;;8.82;4.43;;;17.90;99.90;;;;;;5072954;28;20196;-77
2022/06/22 01:05:15;;;;;;;6.78;4.32;;;17.90;99.90;;;;;;5072808;28;20213;-77
2022/06/22 01:07:47;;;;;;;4.35;3.95;;;17.80;99.90;;;;;;5072777;28;20196;-77
2022/06/22 01:10:21;;;;;;;5.60;4.40;;;17.80;99.90;;;;;;5072837;28;20197;-77
2022/06/22 01:12:55;;;;;;;8.43;4.43;;;17.70;99.90;;;;;;5072835;28;20201;-77
2022/06/22 01:15:27;;;;;;;6.97;4.47;;;17.60;99.90;;;;;;5072746;28;20193;-77
2022/06/22 01:18:02;;;;;;;8.40;4.32;;;17.60;99.90;;;;;;5072497;28;20207;-77
2022/06/22 01:20:34;;;;;;;4.50;4.07;;;17.50;99.90;;;;;;5072804;28;20196;-77
2022/06/22 01:23:25;;;;;;;5.93;4.25;;;17.50;99.90;;;;;;5072541;28;20659;-77
2022/06/22 01:25:55;;;;;;;4.78;4.25;;;17.40;99.90;;;;;;5072550;28;20266;-77
2022/06/22 01:28:25;;;;;;;8.32;4.88;;;17.40;99.90;;;;;;5076061;28;20280;-77
2022/06/22 01:30:55;;;;;;;6.82;4.20;;;17.40;99.90;;;;;;5076731;28;20197;-77
2022/06/22 01:33:32;;;;;;;5.50;4.38;;;17.40;99.90;;;;;;5076708;28;20204;-77
2022/06/22 01:36:01;;;;;;;5.95;4.38;;;17.50;99.90;;;;;;5076558;28;20588;-77
2022/06/22 01:38:30;;;;;;;8.90;4.70;;;17.50;99.90;;;;;;5076434;28;20250;-77
2022/06/22 01:41:05;;;;;;;7.60;4.85;;;17.50;99.90;;;;;;5076244;28;20201;-77
2022/06/22 01:43:37;;;;;;;9.55;5.40;;;17.60;99.90;;;;;;5076529;28;20303;-77
2022/06/22 01:46:13;;;;;;;7.28;4.53;;;17.50;99.90;;;;;;5076310;28;20279;-77
2022/06/22 01:48:44;;;;;;;7.63;5.05;;;17.60;99.90;;;;;;5076242;28;20734;-78
2022/06/22 01:51:18;;;;;;;5.05;4.50;;;17.60;99.90;;;;;;5076341;28;20246;-78
2022/06/22 01:53:49;;;;;;;5.95;4.30;;;17.60;99.90;;;;;;5076248;28;20225;-77
2022/06/22 01:56:23;;;;;;;5.47;4.57;;;17.70;99.90;;;;;;5076210;28;20246;-77
2022/06/22 01:59:00;;;;;;;4.93;4.35;;;17.70;99.90;;;;;;5076146;28;20197;-77
2022/06/22 02:01:33;;;;;;;4.78;4.28;;;17.70;99.90;;;;;;5075980;28;20247;-77
2022/06/22 02:04:14;;;;;;;5.07;4.35;;;17.70;99.90;;;;;;5075850;28;20259;-77
2022/06/22 02:09:47;;;;;;;6.28;4.72;;;17.60;99.90;;;;;;5075825;28;20198;-77
2022/06/22 02:12:20;;;;;;;5.68;3.67;;;17.60;99.90;;;;;;5076023;28;20201;-78
2022/06/22 02:14:53;;;;;;;4.03;3.63;;;17.60;99.90;;;;;;5076444;28;20254;-78
2022/06/22 02:17:24;;;;;;;6.47;3.47;;;17.50;99.90;;;;;;5076669;28;20258;-78
2022/06/22 02:20:24;;;;;;;6.65;3.90;;;17.40;99.90;;;;;;5075774;28;20209;-78
2022/06/22 02:22:55;;;;;;;7.32;3.70;;;17.40;99.90;;;;;;5075581;28;20205;-78
2022/06/22 02:25:24;;;;;;;3.90;3.55;;;17.40;99.90;;;;;;5075581;28;20221;-78
2022/06/22 02:27:51;;;;;;;5.55;3.72;;;17.40;99.90;;;;;;5075589;28;20274;-78
2022/06/22 02:30:19;;;;;;;4.10;3.58;;;17.30;99.90;;;;;;5075444;28;20197;-78
2022/06/22 02:32:47;;;;;;;5.82;4.05;;;17.20;99.90;;;;;;5075388;28;20197;-76
2022/06/22 02:35:15;;;;;;;5.75;3.85;;;17.20;99.90;;;;;;5075218;28;20205;-76
2022/06/22 02:37:46;;;;;;;4.07;3.72;;;17.30;99.90;;;;;;5075383;28;20196;-76
2022/06/22 02:40:18;;;;;;;5.80;3.85;;;17.40;99.90;;;;;;5074553;28;20706;-76
2022/06/22 02:45:31;;;;;;;6.65;4.30;;;17.30;99.90;;;;;;5075074;28;20698;-76
2022/06/22 02:48:00;;;;;;;5.43;4.13;;;17.20;99.90;;;;;;5075075;28;20201;-76
2022/06/22 02:50:34;;;;;;;4.97;4.07;;;17.30;99.90;;;;;;5075021;28;20200;-76
2022/06/22 02:53:06;;;;;;;4.90;4.40;;;17.10;99.90;;;;;;5075119;28;20220;-76
2022/06/22 02:55:35;;;;;;;5.03;4.50;;;16.90;99.90;;;;;;5075033;28;20205;-76
2022/06/22 02:58:03;;;;;;;5.07;4.57;;;16.60;99.90;;;;;;5074870;28;20192;-76
2022/06/22 03:00:35;;;;;;;6.15;4.95;;;16.50;99.90;;;;;;5074809;28;20737;-76
2022/06/22 03:03:09;;;;;;;8.75;4.97;;;16.40;99.90;;;;;;5074964;28;20223;-76
2022/06/22 03:05:37;;;;;;;6.45;4.68;;;16.40;99.90;;;;;;5074895;28;20228;-76
2022/06/22 03:08:05;;;;;;;5.78;4.60;;;16.30;99.90;;;;;;5074814;28;20204;-75
2022/06/22 03:10:42;;;;;;;9.52;5.00;;;16.40;99.90;;;;;;5074686;28;20197;-76
2022/06/22 03:13:09;;;;;;;6.47;4.75;;;16.60;99.90;;;;;;5074875;28;20606;-77
2022/06/22 03:15:38;;;;;;;6.20;4.75;;;16.60;99.90;;;;;;5074765;28;20216;-77
2022/06/22 03:18:06;;;;;;;9.00;4.90;;;16.60;99.90;;;;;;5074598;28;20193;-77
2022/06/22 03:20:41;;;;;;;5.68;4.50;;;16.60;99.90;;;;;;5074547;28;20197;-78
2022/06/22 03:23:15;;;;;;;4.88;3.95;;;16.70;99.90;;;;;;5074356;28;20231;-77
2022/06/22 03:25:47;;;;;;;4.90;4.40;;;16.80;99.90;;;;;;5074527;28;20266;-77
2022/06/22 03:28:19;;;;;;;6.45;4.18;;;17.00;99.90;;;;;;5074452;28;20197;-77
2022/06/22 03:30:52;;;;;;;5.32;4.82;;;17.00;99.90;;;;;;5074456;28;20201;-77
2022/06/22 03:33:25;;;;;;;6.57;4.55;;;17.10;99.90;;;;;;5074289;28;20603;-77
2022/06/22 03:35:56;;;;;;;4.40;4.00;;;17.20;99.90;;;;;;5074542;28;20208;-77
2022/06/22 03:38:26;;;;;;;5.85;4.32;;;17.20;99.90;;;;;;5074536;28;20288;-77
2022/06/22 03:40:57;;;;;;;5.72;4.13;;;17.10;99.90;;;;;;5074264;28;20197;-77
2022/06/22 03:43:28;;;;;;;5.10;3.97;;;17.20;99.90;;;;;;5074127;28;20201;-77
2022/06/22 03:46:02;;;;;;;6.78;3.85;;;17.30;99.90;;;;;;5073828;28;20221;-78
2022/06/22 03:48:35;;;;;;;6.93;4.50;;;17.30;99.90;;;;;;5075868;28;20196;-77
2022/06/22 03:51:08;;;;;;;4.88;4.40;;;17.40;99.90;;;;;;5075183;28;20197;-77
2022/06/22 03:53:40;;;;;;;5.78;4.10;;;17.30;99.90;;;;;;5073942;28;20239;-77
2022/06/22 03:56:10;;;;;;;8.02;5.15;;;17.40;99.90;;;;;;5073811;28;20197;-77
2022/06/22 03:58:38;;;;;;;7.13;4.57;;;17.40;99.90;;;;;;5075649;28;20292;-77
2022/06/22 04:01:06;;;;;;;7.85;4.78;;;17.40;99.90;;;;;;5074619;28;20228;-77
2022/06/22 04:03:33;;;;;;;4.95;4.40;;;17.50;99.90;;;;;;5073941;28;20208;-77
2022/06/22 04:06:03;;;;;;;7.05;4.50;;;17.50;99.90;;;;;;5073598;28;20270;-77
2022/06/22 04:08:32;;;;;;;9.07;4.60;;;17.60;99.90;;;;;;5073812;28;20204;-77
2022/06/22 04:11:05;;;;;;;7.13;4.10;;;17.70;99.90;;;;;;5073516;28;20259;-77
2022/06/22 04:13:38;;;;;;;10.00;4.47;;;17.80;99.90;;;;;;5073569;28;20201;-77
2022/06/22 04:16:10;;;;;;;4.80;4.30;;;17.90;99.90;;;;;;5073440;28;20201;-77
2022/06/22 04:18:43;;;;;;;6.60;4.40;;;18.10;99.90;;;;;;5073338;28;20743;-77
2022/06/22 04:21:13;;;;;;;5.10;3.97;;;18.20;99.90;;;;;;5073346;28;20255;-77
2022/06/22 04:23:44;;;;;;;5.80;3.75;;;18.30;99.90;;;;;;5073208;28;20205;-77
2022/06/22 04:26:15;;;;;;;7.53;4.47;;;18.40;99.90;;;;;;5074506;28;20216;-78
2022/06/22 04:28:48;;;;;;;7.18;5.30;;;18.40;99.90;;;;;;5073614;28;20291;-77
2022/06/22 04:31:21;;;;;;;6.72;4.80;;;18.40;99.90;;;;;;5073327;28;20235;-77
2022/06/22 04:33:51;;;;;;;10.90;6.47;;;18.50;99.90;;;;;;5073217;28;20250;-77
2022/06/22 04:36:23;;;;;;;11.25;5.80;;;18.50;99.90;;;;;;5073866;28;20253;-76
2022/06/22 04:38:54;;;;;;;7.90;5.80;;;18.50;99.90;;;;;;5073328;28;20695;-76
2022/06/22 04:41:27;;;;;;;9.07;5.85;;;18.50;99.90;;;;;;5073161;28;20234;-78
2022/06/22 04:43:55;;;;;;;9.18;5.60;;;18.50;99.90;;;;;;5073014;28;20201;-77
2022/06/22 04:46:28;;;;;;;8.93;5.65;;;18.60;99.90;;;;;;5072883;28;20576;-76
2022/06/22 04:48:57;;;;;;;14.80;6.10;;;18.70;99.90;;;;;;5073152;28;20244;-76
2022/06/22 04:51:27;;;;;;;10.80;6.03;;;18.60;99.90;;;;;;5073105;28;20642;-76
2022/06/22 04:53:57;;;;;;;12.93;5.97;;;18.60;99.90;;;;;;5072737;28;20286;-76
2022/06/22 04:56:30;;;;;;;9.50;5.47;;;18.60;99.90;;;;;;5072873;28;20201;-77
2022/06/22 04:58:59;;;;;;;7.22;5.80;;;18.70;99.90;;;;;;5072948;28;20258;-77
2022/06/22 05:01:30;;;;;;;9.80;5.82;;;18.80;99.90;;;;;;5072458;28;20275;-77
2022/06/22 05:03:59;;;;;;;16.38;7.40;;;19.00;99.90;;;;;;5072929;28;20205;-77
2022/06/22 05:06:33;;;;;;;10.13;5.65;;;19.10;99.90;;;;;;5072775;28;20216;-77
2022/06/22 05:09:04;;;;;;;16.50;7.10;;;19.30;99.90;;;;;;5072707;28;20806;-77
2022/06/22 05:11:37;;;;;;;17.10;7.05;;;19.50;99.90;;;;;;5072730;28;20201;-77
2022/06/22 05:14:10;;;;;;;10.40;5.30;;;19.80;99.90;;;;;;5072812;28;20205;-77
2022/06/22 05:16:38;;;;;;;10.35;5.70;;;19.90;99.90;;;;;;5072892;28;20201;-77
2022/06/22 05:19:06;;;;;;;13.70;5.63;;;20.00;99.90;;;;;;5072674;28;20243;-77
2022/06/22 05:21:38;;;;;;;13.52;5.80;;;20.10;99.90;;;;;;5072581;28;20246;-77
2022/06/22 05:24:10;;;;;;;11.50;5.93;;;20.20;99.90;;;;;;5072450;28;20200;-77
2022/06/22 05:26:37;;;;;;;15.02;5.70;;;20.40;99.90;;;;;;5072675;28;20232;-78
2022/06/22 05:29:08;;;;;;;13.18;5.22;;;20.40;99.90;;;;;;5072464;28;20197;-75
2022/06/22 05:31:40;;;;;;;10.93;4.80;;;20.40;99.90;;;;;;5072339;28;20602;-76
2022/06/22 05:34:11;;;;;;;8.45;4.57;;;20.60;99.90;;;;;;5072325;28;20200;-76
2022/06/22 05:36:41;;;;;;;9.13;4.82;;;20.50;99.90;;;;;;5072406;28;20284;-75
2022/06/22 05:39:07;;;;;;;7.03;4.22;;;20.40;99.90;;;;;;5072503;28;20246;-76
2022/06/22 05:41:38;;;;;;;5.28;4.78;;;20.50;99.90;;;;;;5072277;28;20193;-76
2022/06/22 05:44:08;;;;;;;6.85;4.10;;;20.50;99.90;;;;;;5072302;28;20201;-76
2022/06/22 05:46:35;;;;;;;6.75;4.30;;;20.50;99.90;;;;;;5072175;28;20619;-75
2022/06/22 05:49:04;;;;;;;5.97;4.32;;;20.50;99.90;;;;;;5072136;28;20666;-76
2022/06/22 05:51:39;;;;;;;9.77;4.88;;;20.70;99.90;;;;;;5072130;28;20684;-76
2022/06/22 05:54:12;;;;;;;7.30;4.47;;;20.90;99.90;;;;;;5072268;28;20266;-76
2022/06/22 05:56:46;;;;;;;8.68;4.88;;;21.20;99.90;;;;;;5072346;28;20205;-76
2022/06/22 05:59:19;;;;;;;6.72;4.60;;;21.30;99.90;;;;;;5072323;28;20254;-76
2022/06/22 06:01:52;;;;;;;10.45;5.03;;;21.70;99.90;;;;;;5072686;28;20243;-76
2022/06/22 06:04:27;;;;;;;5.03;4.45;;;22.10;99.90;;;;;;5072358;28;20197;-76
2022/06/22 06:07:00;;;;;;;14.02;4.97;;;22.40;99.90;;;;;;5072865;28;20216;-77
2022/06/22 06:09:27;;;;;;;9.75;4.95;;;22.60;99.90;;;;;;5073755;28;20219;-77
2022/06/22 06:12:02;;;;;;;8.32;4.80;;;22.50;99.90;;;;;;5073829;28;20197;-78
2022/06/22 06:14:33;;;;;;;8.23;4.55;;;22.60;99.90;;;;;;5076388;28;20200;-77
2022/06/22 06:17:04;;;;;;;10.98;4.90;;;22.70;99.90;;;;;;5077634;28;20255;-77
2022/06/22 06:19:37;;;;;;;8.55;4.32;;;22.80;99.90;;;;;;5077441;28;20193;-77
2022/06/22 06:22:05;;;;;;;6.78;4.68;;;22.80;99.90;;;;;;5076975;28;20204;-77
2022/06/22 06:24:36;;;;;;;10.55;4.40;;;22.60;99.90;;;;;;5076769;28;20522;-76
2022/06/22 06:29:58;;;;;;;10.73;4.70;;;22.60;99.90;;;;;;5076924;28;20196;-76
2022/06/22 06:32:35;;;;;;;11.20;4.45;;;22.70;99.90;;;;;;5077959;28;20247;-76
2022/06/22 06:35:11;;;;;;;7.07;4.50;;;22.70;99.90;;;;;;5078713;28;20253;-75
2022/06/22 06:37:53;;;;;;;7.93;4.38;;;22.70;99.90;;;;;;5078876;28;20199;-76
2022/06/22 06:40:38;;;;;;;10.35;4.40;;;22.80;99.90;;;;;;5079175;28;20200;-76
2022/06/22 06:43:25;;;;;;;8.75;4.70;;;22.80;99.90;;;;;;5079096;28;20193;-75
2022/06/22 06:45:54;;;;;;;8.30;4.57;;;22.80;99.90;;;;;;5079998;28;20268;-76
2022/06/22 06:48:25;;;;;;;13.35;5.40;;;22.80;99.90;;;;;;5078767;28;20247;-76
2022/06/22 06:50:57;;;;;;;5.22;4.70;;;22.90;99.90;;;;;;5079847;28;20229;-76
2022/06/22 06:53:30;;;;;;;9.25;4.50;;;22.70;99.90;;;;;;5079428;28;20229;-76
2022/06/22 06:56:02;;;;;;;8.07;4.53;;;22.90;99.90;;;;;;5079156;28;20231;-75
2022/06/22 06:58:40;;;;;;;8.45;5.00;;;23.00;99.90;;;;;;5076885;28;20602;-76
2022/06/22 07:01:09;;;;;;;9.70;4.90;;;23.10;99.90;;;;;;5076524;28;20390;-76
2022/06/22 07:03:40;;;;;;;8.23;4.70;;;23.20;99.90;;;;;;5075750;28;20656;-76
2022/06/22 07:06:09;;;;;;;7.60;4.22;;;23.00;99.90;;;;;;5075767;28;20185;-76
2022/06/22 07:08:38;;;;;;;6.22;4.43;;;23.00;99.90;;;;;;5075266;28;20236;-76
2022/06/22 07:11:13;;;;;;;5.72;4.07;;;23.10;99.90;;;;;;5075104;28;20212;-77
2022/06/22 07:13:46;;;;;;;4.55;4.05;;;23.20;99.90;;;;;;5075480;28;20219;-77
2022/06/22 07:16:18;;;;;;;6.50;4.45;;;23.30;99.90;;;;;;5075573;28;20205;-77
2022/06/22 07:18:50;;;;;;;5.90;4.15;;;23.60;99.90;;;;;;5076090;28;20274;-77
2022/06/22 07:21:25;;;;;;;6.82;4.45;;;23.70;99.90;;;;;;5075668;28;20201;-75
2022/06/22 07:23:56;;;;;;;9.65;4.65;;;23.90;99.90;;;;;;5075702;28;20205;-77
2022/06/22 07:26:30;;;;;;;7.65;4.20;;;23.90;99.90;;;;;;5074916;28;20204;-76
2022/06/22 07:29:02;;;;;;;7.22;3.95;;;23.90;99.90;;;;;;5076109;28;20687;-76
2022/06/22 07:31:36;;;;;;;9.07;3.95;;;24.10;99.90;;;;;;5075455;28;20193;-77
2022/06/22 07:34:10;;;;;;;5.82;4.18;;;24.20;99.90;;;;;;5074961;28;20259;-76
2022/06/22 07:36:42;;;;;;;5.82;3.83;;;24.60;99.90;;;;;;5075340;28;20200;-75
2022/06/22 07:39:15;;;;;;;6.85;4.30;;;24.90;99.90;;;;;;5074342;28;20247;-76
2022/06/22 07:41:43;;;;;;;4.70;4.20;;;25.00;99.90;;;;;;5074375;28;20205;-75
2022/06/22 07:44:17;;;;;;;6.90;4.13;;;25.10;99.90;;;;;;5074344;28;20244;-76
2022/06/22 07:46:47;;;;;;;7.30;4.00;;;25.30;99.90;;;;;;5074107;28;20201;-75
2022/06/22 07:49:18;;;;;;;5.95;4.35;;;25.50;99.90;;;;;;5075901;28;20193;-76
2022/06/22 07:51:50;;;;;;;6.40;4.30;;;25.90;99.00;;;;;;5076552;28;20250;-76
2022/06/22 07:54:21;;;;;;;6.40;4.43;;;26.30;97.20;;;;;;5076262;28;20263;-77
2022/06/22 07:56:58;;;;;;;10.10;4.20;;;26.50;95.10;;;;;;5076330;28;20201;-75
2022/06/22 07:59:28;;;;;;;4.18;3.78;;;27.00;93.20;;;;;;5075906;28;20287;-76
2022/06/22 08:02:01;;;;;;;6.07;4.05;;;27.60;90.10;;;;;;5074086;28;20222;-76
2022/06/22 08:04:33;;;;;;;7.85;4.10;;;27.30;82.70;;;;;;5074352;28;20208;-76
2022/06/22 08:07:04;;;;;;;6.00;4.18;;;27.30;83.50;;;;;;5075548;28;20247;-76
2022/06/22 08:09:34;;;;;;;8.80;4.20;;;27.20;79.60;;;;;;5075493;28;20197;-76
2022/06/22 08:12:05;;;;;;;7.97;4.07;;;27.70;79.60;;;;;;5075848;28;20201;-76
2022/06/22 08:14:38;;;;;;;7.18;4.53;;;28.00;75.30;;;;;;5076985;28;20197;-76
2022/06/22 08:17:11;;;;;;;10.93;4.97;;;28.00;73.10;;;;;;5077571;28;20675;-76
2022/06/22 08:19:38;;;;;;;4.97;4.43;;;28.20;69.80;;;;;;5078516;28;20599;-76
2022/06/22 08:22:07;;;;;;;5.90;4.10;;;28.00;66.60;;;;;;5078158;28;20605;-76
2022/06/22 08:24:41;;;;;;;4.50;4.10;;;27.90;68.10;;;;;;5077768;28;20717;-76
2022/06/22 08:27:13;;;;;;;6.90;4.20;;;28.20;66.60;;;;;;5077786;28;20239;-77
2022/06/22 08:29:39;;;;;;;4.70;4.30;;;28.20;64.70;;;;;;5078792;28;20200;-76
2022/06/22 08:32:12;;;;;;;5.72;4.30;;;28.10;64.30;;;;;;5076934;28;20205;-76
2022/06/22 08:34:45;;;;;;;5.53;4.25;;;28.20;63.20;;;;;;5077627;28;20542;-77
2022/06/22 08:37:17;;;;;;;5.60;4.20;;;28.60;61.50;;;;;;5074839;28;20197;-77
2022/06/22 08:39:51;;;;;;;4.50;4.10;;;28.50;60.10;;;;;;5074317;28;20255;-78
2022/06/22 08:42:29;;;;;;;4.72;4.22;;;28.70;60.30;;;;;;5074064;28;20200;-76
2022/06/22 08:45:12;;;;;;;5.13;3.95;;;28.50;59.80;;;;;;5074431;28;20603;-76
2022/06/22 08:47:56;;;;;;;4.70;4.28;;;29.10;59.20;;;;;;5074123;28;20221;-75
2022/06/22 08:50:44;;;;;;;11.43;4.20;;;28.70;58.30;;;;;;5074248;28;20201;-76
2022/06/22 08:53:34;;;;;;;5.25;4.65;;;28.50;58.50;;;;;;5072115;28;20707;-76
2022/06/22 08:56:21;;;;;;;9.68;4.63;;;28.30;58.60;;;;;;5073576;28;20224;-77
2022/06/22 08:59:11;;;;;;;4.78;4.38;;;28.10;59.00;;;;;;5075666;28;20250;-76
2022/06/22 09:01:48;;;;;;;7.18;4.40;;;28.50;59.20;;;;;;5077040;28;20201;-76
2022/06/22 09:04:36;;;;;;;5.68;4.43;;;29.30;58.00;;;;;;5076553;28;20287;-76
2022/06/22 09:07:19;;;;;;;6.45;4.32;;;29.80;55.50;;;;;;5077013;28;20636;-76
2022/06/22 09:10:09;;;;;;;7.53;4.80;;;29.70;54.50;;;;;;5077541;28;20201;-75
2022/06/22 09:12:54;;;;;;;6.50;4.70;;;29.70;54.10;;;;;;5076265;28;20211;-77
2022/06/22 09:15:36;;;;;;;6.88;4.47;;;29.70;53.80;;;;;;5076799;28;20558;-76
2022/06/22 09:18:18;;;;;;;7.05;4.55;;;28.70;55.70;;;;;;5075890;28;20223;-76
2022/06/22 09:20:59;;;;;;;4.72;4.32;;;29.40;55.90;;;;;;5076577;28;20205;-77
2022/06/22 09:23:32;;;;;;;8.65;4.85;;;28.70;55.50;;;;;;5077105;28;20196;-76
2022/06/22 09:26:14;;;;;;;9.68;4.47;;;28.30;56.40;;;;;;5076068;28;20250;-76
2022/06/22 09:28:49;;;;;;;5.20;4.70;;;27.80;58.00;;;;;;5076063;28;20225;-77
2022/06/22 09:31:41;;;;;;;5.57;4.47;;;27.40;58.40;;;;;;5076294;28;20738;-77
2022/06/22 09:34:27;;;;;;;7.32;4.72;;;27.80;59.30;;;;;;5076650;28;20197;-76
2022/06/22 09:37:23;;;;;;;12.30;5.05;;;28.00;59.40;;;;;;5075788;28;20197;-76
2022/06/22 09:40:16;;;;;;;5.00;4.50;;;28.30;58.00;;;;;;5077169;28;20579;-76
2022/06/22 09:43:22;;;;;;;5.10;4.40;;;28.50;57.40;;;;;;5075439;28;20594;-78
2022/06/22 09:46:04;;;;;;;4.80;4.40;;;28.50;57.30;;;;;;5073882;28;20192;-77
2022/06/22 09:48:49;;;;;;;5.05;4.65;;;28.80;56.10;;;;;;5075774;28;20294;-75
2022/06/22 09:51:34;;;;;;;7.65;5.15;;;29.10;55.70;;;;;;5078109;28;20694;-77
2022/06/22 09:57:40;;;;;;;8.10;4.65;;;29.20;57.00;;;;;;5077832;28;20193;-76
2022/06/22 10:00:11;;;;;;;7.22;5.00;;;28.90;56.00;;;;;;5077005;28;20262;-75
2022/06/22 10:03:15;;;;;;;4.75;4.32;;;29.20;55.10;;;;;;5076068;28;20193;-75
2022/06/22 10:06:04;;;;;;;5.63;4.53;;;29.60;54.80;;;;;;5076031;28;20197;-74
2022/06/22 10:08:49;;;;;;;6.47;4.43;;;29.60;53.90;;;;;;5075781;28;20234;-75
2022/06/22 10:11:25;;;;;;;8.55;4.78;;;29.30;53.90;;;;;;5076577;28;20197;-77
2022/06/22 10:14:17;;;;;;;6.00;4.72;;;29.10;53.80;;;;;;5078935;28;20227;-77
2022/06/22 10:17:07;;;;;;;8.65;5.03;;;28.80;54.30;;;;;;5078619;28;20197;-76
2022/06/22 10:19:51;;;;;;;7.18;4.80;;;28.50;54.20;;;;;;5078449;28;20648;-76
2022/06/22 10:22:32;;;;;;;5.55;4.88;;;28.50;55.10;;;;;;5078786;28;20201;-76
2022/06/22 10:25:34;;;;;;;7.63;5.13;;;28.80;54.50;;;;;;5078547;28;20254;-75
2022/06/22 10:28:24;;;;;;;4.72;4.32;;;28.60;54.50;;;;;;5078504;28;20619;-76
2022/06/22 10:30:57;;;;;;;6.60;4.82;;;28.40;54.80;;;;;;5075813;28;20201;-77
2022/06/22 10:34:09;;;;;;;7.78;4.70;;;28.60;54.80;;;;;;5076809;28;20197;-77
2022/06/22 10:37:02;;;;;;;6.32;4.80;;;28.60;55.00;;;;;;5060374;28;20631;-76
2022/06/22 10:39:57;;;;;;;6.32;4.25;;;29.00;54.40;;;;;;5079629;28;20201;-77
2022/06/22 10:45:40;;;;;;;5.10;4.63;;;28.80;54.50;;;;;;5076472;28;20195;-77
2022/06/22 10:48:46;;;;;;;6.78;4.63;;;29.00;54.80;;;;;;5076452;28;20217;-77
2022/06/22 10:51:27;;;;;;;5.57;5.05;;;28.70;54.40;;;;;;5076155;28;20704;-76
2022/06/22 10:54:22;;;;;;;4.95;4.55;;;28.50;54.80;;;;;;5076658;28;20224;-76
2022/06/22 10:57:06;;;;;;;5.82;4.68;;;28.70;54.40;;;;;;5077096;28;20207;-75
2022/06/22 11:00:20;;;;;;;6.70;4.78;;;28.80;54.10;;;;;;5076162;28;20205;-76
2022/06/22 11:03:21;;;;;;;9.18;4.55;;;28.50;54.40;;;;;;5075174;28;20197;-76
2022/06/22 11:06:33;;;;;;;7.70;5.57;;;28.30;55.00;;;;;;5076713;28;20295;-74
2022/06/22 11:09:26;;;;;;;8.18;4.88;;;28.30;55.20;;;;;;5050554;28;20224;-76
2022/06/22 11:12:21;;;;;;;5.95;5.05;;;28.30;54.40;;;;;;5075947;28;20197;-77
2022/06/22 11:15:04;;;;;;;5.30;4.80;;;28.40;54.70;;;;;;5075657;28;20227;-74
2022/06/22 11:17:46;;;;;;;5.97;5.30;;;29.00;54.70;;;;;;5075037;28;20201;-76
2022/06/22 11:20:39;;;;;;;7.70;6.00;;;28.90;58.50;;;;;;5074920;28;20200;-77
2022/06/22 11:23:10;;;;;;;8.10;6.05;;;27.70;63.80;;;;;;5075422;28;20193;-75
2022/06/22 11:32:10;;;;;;;6.03;5.20;;;27.70;68.60;;;;;;5072554;28;20204;-76
2022/06/22 11:34:58;;;;;;;8.07;5.65;;;28.20;68.30;;;;;;5074972;28;20204;-76
2022/06/22 11:37:35;;;;;;;6.07;5.53;;;28.10;66.90;;;;;;5076325;28;20274;-76
2022/06/22 11:40:23;;;;;;;7.28;5.40;;;28.30;67.50;;;;;;5077021;28;20250;-77
2022/06/22 11:43:03;;;;;;;6.35;5.25;;;28.30;66.30;;;;;;5074628;28;20620;-75
2022/06/22 11:45:51;;;;;;;6.78;5.68;;;28.40;65.70;;;;;;5074813;28;20201;-76
2022/06/22 11:48:43;;;;;;;7.80;6.10;;;28.20;66.90;;;;;;5074662;28;20217;-75
2022/06/22 11:51:20;;;;;;;12.77;6.25;;;28.00;67.20;;;;;;5074416;28;20225;-76
2022/06/22 11:54:19;;;;;;;7.07;6.07;;;28.00;67.40;;;;;;5074482;28;20240;-77
2022/06/22 11:57:01;;;;;;;7.45;6.22;;;27.40;69.40;;;;;;5074182;28;20193;-77
2022/06/22 12:00:02;;;;;;;7.47;5.95;;;27.20;71.90;;;;;;5074349;28;20303;-76
2022/06/22 12:02:44;;;;;;;10.57;6.30;;;27.30;71.40;;;;;;5073920;28;20197;-75
2022/06/22 12:05:36;;;;;;;6.90;6.28;;;27.20;71.40;;;;;;5073804;28;20266;-76
2022/06/22 12:08:20;;;;;;;10.07;6.30;;;27.00;72.30;;;;;;5073390;28;20203;-76
2022/06/22 12:10:50;;;;;;;12.50;6.32;;;27.00;73.80;;;;;;5072944;28;20813;-76
2022/06/22 12:13:30;;;;;;;8.20;6.30;;;27.10;74.90;;;;;;5073562;28;20703;-76
2022/06/22 12:16:16;;;;;;;7.15;6.45;;;26.80;76.40;;;;;;5074114;28;20258;-76
2022/06/22 12:19:05;;;;;;;7.20;6.50;;;26.80;77.80;;;;;;5074281;28;20212;-76
2022/06/22 12:21:42;;;;;;;9.13;6.53;;;26.70;78.60;;;;;;5073865;28;20201;-77
2022/06/22 12:24:21;;;;;;;7.10;6.25;;;26.50;78.50;;;;;;5073655;28;20193;-76
2022/06/22 12:26:58;;;;;;;9.50;6.10;;;26.30;79.00;;;;;;5073676;28;20196;-77
2022/06/22 12:29:53;;;;;;;10.57;6.28;;;26.20;79.40;;;;;;5074126;28;20221;-77
2022/06/22 12:32:27;;;;;;;7.25;6.22;;;26.20;80.00;;;;;;5074036;28;20205;-77
2022/06/22 12:35:04;;;;;;;9.25;6.50;;;26.40;79.90;;;;;;5073899;28;20247;-77
2022/06/22 12:37:36;;;;;;;8.48;6.45;;;26.30;79.90;;;;;;5074039;28;20204;-77
2022/06/22 12:40:12;;;;;;;8.48;6.18;;;26.30;80.60;;;;;;5073538;28;20197;-76
2022/06/22 12:42:49;;;;;;;7.72;5.90;;;26.20;79.80;;;;;;5073267;28;20541;-76
2022/06/22 12:45:44;;;;;;;11.10;6.30;;;26.40;80.60;;;;;;5073601;28;20567;-76
2022/06/22 12:48:50;;;;;;;7.10;6.40;;;26.40;80.50;;;;;;5068375;28;20193;-76
2022/06/22 12:51:26;;;;;;;7.28;6.32;;;26.00;81.60;;;;;;5073463;28;20608;-76
2022/06/22 12:53:59;;;;;;;9.35;6.20;;;26.20;81.10;;;;;;5073176;28;20233;-76
2022/06/22 12:56:30;;;;;;;7.20;6.47;;;26.30;81.10;;;;;;5073614;28;20205;-77
2022/06/22 12:59:02;;;;;;;7.75;6.97;;;26.30;81.90;;;;;;5073312;28;20205;-76
2022/06/22 13:01:29;;;;;;;7.32;6.63;;;26.10;84.20;;;;;;5073604;28;20197;-76
2022/06/22 13:04:02;;;;;;;9.70;6.90;;;26.00;86.90;;;;;;5073321;28;20576;-75
2022/06/22 13:06:31;;;;;;;10.45;7.18;;;26.30;86.90;;;;;;5072729;28;20197;-76
2022/06/22 13:08:59;;;;;;;9.80;6.93;;;25.90;88.60;;;;;;5072537;28;20224;-75
2022/06/22 13:11:29;;;;;;;11.00;7.60;;;25.70;90.60;;;;;;5072981;28;20312;-75
2022/06/22 13:14:09;;;;;;;16.13;7.72;;;25.70;91.40;;;;;;5073145;28;20201;-76
2022/06/22 13:16:41;;;;;;;13.32;9.32;;;25.80;92.30;;;;;;5073029;28;20258;-75
2022/06/22 13:19:17;;;;;;;15.52;10.05;;;25.50;98.40;;;;;;5072973;28;20254;-75
2022/06/22 13:21:54;;;;;;;13.77;11.50;;;24.60;99.90;;;;;;5072855;28;20254;-74
2022/06/22 13:24:28;;;;;;;13.77;12.07;;;23.20;99.90;;;;;;5076310;28;20224;-73
2022/06/22 13:27:03;;;;;;;14.05;12.63;;;22.80;99.90;;;;;;5076609;28;20200;-74
2022/06/22 13:29:35;;;;;;;11.82;10.43;;;22.30;99.90;;;;;;5077504;28;20239;-74
2022/06/22 13:32:06;;;;;;;12.57;9.52;;;22.00;99.90;;;;;;5076732;28;20200;-73
2022/06/22 13:34:39;;;;;;;15.27;10.27;;;21.60;99.90;;;;;;5076972;28;20201;-74
2022/06/22 13:37:16;;;;;;;10.90;8.50;;;21.50;99.90;;;;;;5076826;28;20262;-74
2022/06/22 13:39:53;;;;;;;11.25;8.80;;;21.20;99.90;;;;;;5076519;28;20197;-74
2022/06/22 13:42:52;;;;;;;10.65;8.40;;;21.10;99.90;;;;;;5076560;28;20261;-74
2022/06/22 13:45:51;;;;;;;10.02;8.50;;;20.80;99.90;;;;;;5076243;28;20675;-73
2022/06/22 13:48:26;;;;;;;10.50;8.82;;;20.60;99.90;;;;;;5076478;28;20558;-74
2022/06/22 13:51:19;;;;;;;11.82;8.65;;;20.50;99.90;;;;;;5076401;28;20227;-74
2022/06/22 13:54:18;;;;;;;13.10;9.93;;;20.40;99.90;;;;;;5075515;28;20240;-73